Terminal Aerodrome Forecast
Issued by NWS Northern Indiana

Home | Current Version | Previous Version | Text Only | Print | Product List | Glossary On
Versions: 1 2 3 4 5 6 7 8 9 10 11 12 13 14 15 16
000
FTUS43 KIWX 312300 RRA
TAFFWA
TAF
KFWA 312344Z 0100/0124 24008KT P6SM VCSH SCT050 BKN250
     FM010200 VRB03KT P6SM FEW050
     FM011300 23005KT P6SM BKN060=

USA.gov is the U.S. government's official web portal to all federal, state and local government web resources and services.